createdAt,value
2022-09-11T00:00:54.276Z,4.43
2022-09-11T00:03:58.564Z,4.47
2022-09-11T00:07:01.114Z,4.27
2022-09-11T00:10:03.819Z,4.05
2022-09-11T00:13:07.332Z,4.00
2022-09-11T00:16:20.565Z,4.13
2022-09-11T00:19:24.564Z,4.07
2022-09-11T00:22:28.173Z,4.07
2022-09-11T00:25:30.774Z,4.00
2022-09-11T00:28:34.543Z,3.90
2022-09-11T00:31:37.370Z,4.07
2022-09-11T00:34:41.477Z,4.03
2022-09-11T00:37:44.115Z,3.67
2022-09-11T00:40:47.693Z,3.70
2022-09-11T00:43:54.402Z,3.90
2022-09-11T00:46:59.505Z,3.38
2022-09-11T00:50:11.013Z,3.57
2022-09-11T00:53:17.950Z,3.70
2022-09-11T00:56:21.829Z,3.72
2022-09-11T00:59:27.091Z,3.20
2022-09-11T01:02:32.754Z,3.40
2022-09-11T01:05:39.317Z,3.40
2022-09-11T01:08:42.222Z,3.90
2022-09-11T01:11:51.972Z,3.58
2022-09-11T01:15:01.660Z,3.88
2022-09-11T01:18:10.540Z,3.35
2022-09-11T01:21:38.789Z,3.47
2022-09-11T01:24:57.305Z,3.57
2022-09-11T01:28:06.345Z,3.30
2022-09-11T01:31:13.004Z,3.47
2022-09-11T01:34:22.859Z,3.42
2022-09-11T01:37:32.149Z,3.50
2022-09-11T01:40:41.592Z,3.20
2022-09-11T01:43:51.332Z,3.20
2022-09-11T01:46:54.909Z,3.00
2022-09-11T01:50:03.566Z,3.30
2022-09-11T01:53:09.775Z,3.37
2022-09-11T01:56:17.922Z,3.43
2022-09-11T01:59:27.999Z,3.42
2022-09-11T02:02:36.144Z,3.30
2022-09-11T02:05:45.926Z,3.30
2022-09-11T02:08:54.288Z,3.80
2022-09-11T02:12:03.694Z,3.63
2022-09-11T02:15:09.137Z,3.75
2022-09-11T02:18:19.175Z,3.65
2022-09-11T02:21:22.082Z,4.15
2022-09-11T02:24:24.866Z,3.90
2022-09-11T02:27:28.698Z,3.17
2022-09-11T02:30:32.863Z,3.03
2022-09-11T02:33:36.998Z,3.53
2022-09-11T02:36:57.549Z,3.40
2022-09-11T02:40:19.566Z,3.37
2022-09-11T02:43:39.022Z,3.40
2022-09-11T02:46:56.880Z,3.50
2022-09-11T02:50:09.990Z,3.60
2022-09-11T02:53:20.325Z,3.25
2022-09-11T02:56:32.568Z,3.90
2022-09-11T02:59:40.919Z,3.70
2022-09-11T03:02:45.411Z,3.75
2022-09-11T03:05:48.857Z,4.35
2022-09-11T03:08:52.479Z,5.40
2022-09-11T03:11:55.100Z,6.77
2022-09-11T03:14:58.529Z,6.90
2022-09-11T03:18:05.129Z,6.40
2022-09-11T03:21:07.812Z,6.43
2022-09-11T03:24:10.851Z,4.95
2022-09-11T03:27:14.323Z,7.10
2022-09-11T03:30:17.142Z,7.10
2022-09-11T03:33:21.179Z,7.78
2022-09-11T03:36:23.805Z,6.53
2022-09-11T03:39:26.486Z,6.68
2022-09-11T03:42:29.150Z,7.00
2022-09-11T03:45:32.370Z,7.80
2022-09-11T03:48:36.467Z,6.47
2022-09-11T03:51:39.084Z,6.18
2022-09-11T03:54:42.271Z,5.97
2022-09-11T03:57:44.825Z,6.77
2022-09-11T04:00:47.984Z,5.47
2022-09-11T04:03:52.047Z,5.63
2022-09-11T04:06:54.579Z,5.32
2022-09-11T04:09:57.331Z,6.80
2022-09-11T04:13:00.103Z,6.57
2022-09-11T04:16:04.842Z,6.77
2022-09-11T04:19:10.631Z,7.20
2022-09-11T04:22:13.321Z,6.55
2022-09-11T04:25:16.186Z,5.50
2022-09-11T04:28:18.774Z,5.90
2022-09-11T04:31:22.424Z,6.47
2022-09-11T04:34:26.572Z,6.50
2022-09-11T04:37:29.375Z,6.22
2022-09-11T04:40:33.291Z,6.73
2022-09-11T04:43:38.112Z,5.40
2022-09-11T04:46:41.057Z,6.78
2022-09-11T04:49:46.874Z,5.82
2022-09-11T04:52:49.534Z,5.90
2022-09-11T04:55:52.180Z,6.40
2022-09-11T04:58:56.888Z,5.72
2022-09-11T05:01:59.991Z,5.78
2022-09-11T05:05:04.452Z,5.15
2022-09-11T05:08:08.236Z,5.60
2022-09-11T05:11:13.528Z,6.23
2022-09-11T05:14:16.149Z,7.30
2022-09-11T05:17:18.897Z,6.90
2022-09-11T05:20:22.931Z,6.47
2022-09-11T05:23:25.719Z,7.60
2022-09-11T05:26:31.088Z,7.23
2022-09-11T05:29:33.657Z,6.43
2022-09-11T05:32:36.340Z,6.63
2022-09-11T05:35:40.778Z,6.88
2022-09-11T05:38:43.989Z,7.18
2022-09-11T05:41:46.682Z,5.87
2022-09-11T05:44:49.365Z,5.82
2022-09-11T05:47:55.933Z,6.53
2022-09-11T05:51:02.141Z,7.05
2022-09-11T05:54:05.419Z,6.57
2022-09-11T05:57:08.170Z,6.30
2022-09-11T06:00:13.259Z,8.38
2022-09-11T06:03:16.374Z,6.65
2022-09-11T06:06:22.925Z,6.80
2022-09-11T06:09:25.700Z,7.75
2022-09-11T06:12:28.349Z,7.30
2022-09-11T06:15:46.117Z,7.22
2022-09-11T06:18:50.409Z,8.35
2022-09-11T06:21:54.434Z,7.75
2022-09-11T06:24:57.036Z,8.15
2022-09-11T06:27:59.732Z,7.93
2022-09-11T06:31:03.292Z,8.60
2022-09-11T06:34:05.991Z,7.63
2022-09-11T06:37:10.123Z,6.93
2022-09-11T06:40:13.237Z,7.10
2022-09-11T06:43:16.137Z,7.20
2022-09-11T06:46:20.597Z,7.25
2022-09-11T06:49:23.694Z,6.82
2022-09-11T06:52:28.088Z,6.65
2022-09-11T06:55:31.672Z,7.15
2022-09-11T06:58:34.677Z,7.27
2022-09-11T07:01:39.798Z,6.97
2022-09-11T07:04:42.525Z,6.93
2022-09-11T07:07:48.605Z,7.88
2022-09-11T07:10:51.300Z,8.73
2022-09-11T07:13:54.812Z,7.57
2022-09-11T07:16:57.421Z,7.47
2022-09-11T07:20:00.122Z,6.93
2022-09-11T07:23:04.044Z,6.80
2022-09-11T07:26:08.945Z,7.28
2022-09-11T07:29:12.816Z,7.40
2022-09-11T07:32:15.603Z,7.82
2022-09-11T07:35:21.829Z,6.97
2022-09-11T07:38:25.758Z,7.88
2022-09-11T07:41:29.590Z,6.82
2022-09-11T07:44:32.160Z,6.88
2022-09-11T07:47:34.788Z,6.50
2022-09-11T07:50:37.331Z,7.80
2022-09-11T07:53:43.159Z,6.85
2022-09-11T07:56:45.799Z,7.32
2022-09-11T07:59:48.403Z,7.85
2022-09-11T08:02:51.079Z,7.63
2022-09-11T08:05:59.360Z,7.47
2022-09-11T08:09:06.214Z,8.13
2022-09-11T08:12:09.126Z,7.80
2022-09-11T08:15:11.744Z,8.40
2022-09-11T08:18:14.716Z,7.03
2022-09-11T08:21:17.568Z,8.70
2022-09-11T08:24:21.650Z,7.70
2022-09-11T08:27:24.235Z,6.88
2022-09-11T08:30:26.932Z,7.60
2022-09-11T08:33:29.627Z,8.43
2022-09-11T08:36:32.235Z,7.40
2022-09-11T08:39:36.973Z,7.30
2022-09-11T08:42:41.854Z,7.50
2022-09-11T08:45:45.179Z,7.68
2022-09-11T08:48:55.731Z,7.00
2022-09-11T08:52:02.652Z,7.00
2022-09-11T08:55:12.993Z,6.13
2022-09-11T08:58:22.094Z,6.80
2022-09-11T09:01:29.136Z,6.72
2022-09-11T09:04:45.594Z,7.60
2022-09-11T09:08:02.382Z,7.37
2022-09-11T09:11:15.870Z,7.18
2022-09-11T09:14:33.060Z,7.40
2022-09-11T09:17:42.539Z,8.25
2022-09-11T09:20:50.632Z,6.70
2022-09-11T09:23:56.582Z,6.60
2022-09-11T09:27:05.037Z,6.82
2022-09-11T09:30:16.264Z,7.55
2022-09-11T09:33:30.915Z,6.82
2022-09-11T09:36:37.639Z,6.90
2022-09-11T09:39:41.064Z,7.23
2022-09-11T09:42:59.434Z,5.82
2022-09-11T09:46:16.762Z,6.65
2022-09-11T09:49:23.226Z,6.53
2022-09-11T09:52:28.290Z,6.20
2022-09-11T09:55:31.512Z,6.60
2022-09-11T09:58:41.785Z,5.43
2022-09-11T10:01:47.240Z,6.15
2022-09-11T10:05:08.702Z,5.47
2022-09-11T10:08:29.171Z,5.67
2022-09-11T10:11:32.387Z,5.50
2022-09-11T10:14:51.639Z,5.40
2022-09-11T10:17:59.994Z,5.70
2022-09-11T10:21:17.174Z,5.15
2022-09-11T10:24:23.540Z,5.70
2022-09-11T10:27:29.031Z,6.00
2022-09-11T10:30:36.112Z,5.68
2022-09-11T10:33:41.062Z,5.25
2022-09-11T10:36:53.751Z,5.30
2022-09-11T10:40:06.704Z,5.00
2022-09-11T10:43:24.677Z,5.47
2022-09-11T10:46:39.557Z,5.78
2022-09-11T10:49:43.375Z,5.43
2022-09-11T10:52:50.966Z,5.20
2022-09-11T10:56:00.473Z,4.97
2022-09-11T10:59:11.435Z,4.77
2022-09-11T11:02:31.648Z,4.65
2022-09-11T11:05:45.410Z,4.95
2022-09-11T11:09:21.140Z,5.53
2022-09-11T11:12:40.341Z,4.80
2022-09-11T11:15:57.720Z,4.40
2022-09-11T11:19:18.845Z,5.28
2022-09-11T11:22:36.814Z,4.68
2022-09-11T11:25:47.985Z,3.97
2022-09-11T11:29:09.052Z,4.43
2022-09-11T11:32:27.841Z,4.20
2022-09-11T11:35:41.947Z,4.03
2022-09-11T11:38:52.858Z,4.32
2022-09-11T11:42:07.186Z,4.40
2022-09-11T11:45:17.888Z,4.53
2022-09-11T11:48:26.624Z,4.90
2022-09-11T11:51:35.858Z,4.03
2022-09-11T11:54:42.969Z,4.35
2022-09-11T11:57:55.284Z,4.28
2022-09-11T12:01:02.367Z,3.95
2022-09-11T12:04:19.084Z,4.60
2022-09-11T12:07:26.296Z,3.73
2022-09-11T12:10:33.303Z,3.80
2022-09-11T12:13:42.856Z,3.75
2022-09-11T12:16:48.665Z,3.70
2022-09-11T12:20:31.841Z,3.77
2022-09-11T12:23:56.712Z,3.40
2022-09-11T12:27:48.776Z,3.50
2022-09-11T12:31:07.234Z,4.05
2022-09-11T12:34:17.369Z,3.53
2022-09-11T12:37:28.509Z,4.00
2022-09-11T12:40:37.619Z,3.57
2022-09-11T12:43:49.071Z,3.35
2022-09-11T12:47:18.603Z,4.05
2022-09-11T12:50:25.772Z,4.43
2022-09-11T12:53:32.478Z,4.13
2022-09-11T12:56:36.031Z,4.87
2022-09-11T12:59:41.465Z,4.50
2022-09-11T13:02:51.842Z,4.55
2022-09-11T13:05:56.435Z,4.35
2022-09-11T13:09:02.191Z,3.97
2022-09-11T13:12:48.899Z,4.07
2022-09-11T13:15:53.060Z,3.90
2022-09-11T13:19:02.994Z,3.92
2022-09-11T13:22:22.159Z,4.30
2022-09-11T13:25:26.607Z,4.70
2022-09-11T13:28:31.774Z,4.70
2022-09-11T13:31:36.156Z,4.28
2022-09-11T13:34:44.456Z,3.60
2022-09-11T13:37:59.584Z,2.90
2022-09-11T13:41:06.142Z,3.60
2022-09-11T13:44:11.965Z,3.07
2022-09-11T13:47:20.171Z,3.38
2022-09-11T13:50:24.405Z,3.97
2022-09-11T13:53:28.400Z,3.63
2022-09-11T13:56:45.301Z,4.20
2022-09-11T13:59:50.148Z,3.93
2022-09-11T14:02:52.883Z,3.13
2022-09-11T14:06:00.009Z,3.10
2022-09-11T14:09:03.674Z,3.00
2022-09-11T14:12:07.586Z,2.93
2022-09-11T14:15:20.405Z,2.93
2022-09-11T14:18:29.745Z,3.70
2022-09-11T14:21:35.400Z,2.90
2022-09-11T14:24:38.721Z,3.40
2022-09-11T14:27:44.709Z,3.10
2022-09-11T14:31:06.698Z,2.77
2022-09-11T14:34:17.786Z,3.15
2022-09-11T14:37:22.803Z,2.80
2022-09-11T14:40:25.453Z,2.83
2022-09-11T14:43:32.764Z,2.90
2022-09-11T14:46:35.398Z,3.20
2022-09-11T14:49:38.115Z,3.40
2022-09-11T14:52:42.723Z,4.20
2022-09-11T14:55:45.346Z,3.28
2022-09-11T14:58:48.786Z,3.50
2022-09-11T15:01:52.549Z,3.90
2022-09-11T15:04:57.487Z,4.03
2022-09-11T15:08:01.818Z,4.10
2022-09-11T15:11:04.431Z,3.83
2022-09-11T15:14:20.777Z,3.93
2022-09-11T15:17:31.857Z,3.10
2022-09-11T15:20:34.853Z,3.08
2022-09-11T15:23:39.062Z,3.30
2022-09-11T15:26:41.891Z,3.50
2022-09-11T15:29:45.380Z,3.03
2022-09-11T15:32:48.596Z,2.90
2022-09-11T15:35:51.946Z,2.83
2022-09-11T15:38:56.193Z,2.33
2022-09-11T15:45:22.646Z,2.27
2022-09-11T15:48:26.811Z,2.23
2022-09-11T15:51:29.921Z,2.42
2022-09-11T15:54:34.035Z,2.25
2022-09-11T15:57:36.737Z,2.27
2022-09-11T16:00:39.904Z,2.17
2022-09-11T16:03:42.571Z,2.40
2022-09-11T16:06:47.671Z,2.20
2022-09-11T16:09:51.741Z,1.90
2022-09-11T16:12:58.705Z,2.10
2022-09-11T16:16:04.009Z,1.80
2022-09-11T16:19:06.784Z,1.95
2022-09-11T16:22:09.929Z,2.00
2022-09-11T16:25:13.991Z,2.20
2022-09-11T16:28:16.525Z,1.90
2022-09-11T16:31:19.288Z,1.80
2022-09-11T16:34:21.870Z,1.92
2022-09-11T16:37:24.656Z,1.80
2022-09-11T16:40:28.571Z,1.70
2022-09-11T16:43:31.688Z,1.88
2022-09-11T16:46:34.541Z,2.05
2022-09-11T16:50:03.385Z,2.10
2022-09-11T16:53:00.194Z,2.20
2022-09-11T16:56:08.185Z,2.00
2022-09-11T16:59:10.995Z,2.17
2022-09-11T17:02:13.586Z,1.70
2022-09-11T17:05:18.048Z,1.60
2022-09-11T17:08:30.962Z,2.00
2022-09-11T17:11:34.953Z,1.83
2022-09-11T17:14:37.511Z,2.13
2022-09-11T17:17:41.361Z,2.20
2022-09-11T17:20:44.502Z,2.10
2022-09-11T17:23:47.272Z,2.13
2022-09-11T17:26:51.182Z,2.10
2022-09-11T17:29:53.959Z,2.35
2022-09-11T17:32:57.299Z,1.90
2022-09-11T17:36:01.334Z,2.22
2022-09-11T17:39:04.958Z,2.13
2022-09-11T17:42:13.034Z,2.27
2022-09-11T17:45:16.547Z,3.58
2022-09-11T17:48:19.362Z,4.18
2022-09-11T17:51:24.909Z,4.28
2022-09-11T17:54:28.474Z,3.33
2022-09-11T17:57:32.838Z,3.10
2022-09-11T18:00:35.696Z,3.22
2022-09-11T18:03:38.590Z,3.05
2022-09-11T18:06:42.607Z,3.10
2022-09-11T18:09:45.894Z,2.90
2022-09-11T18:12:49.965Z,3.40
2022-09-11T18:15:52.533Z,3.45
2022-09-11T18:18:55.484Z,3.30
2022-09-11T18:21:59.745Z,3.17
2022-09-11T18:25:02.398Z,3.50
2022-09-11T18:28:07.037Z,3.60
2022-09-11T18:31:09.933Z,3.47
2022-09-11T18:34:15.045Z,3.10
2022-09-11T18:37:18.273Z,3.22
2022-09-11T18:40:20.917Z,3.07
2022-09-11T18:43:25.110Z,3.00
2022-09-11T18:46:28.079Z,2.95
2022-09-11T18:49:30.836Z,3.10
2022-09-11T18:52:33.627Z,6.30
2022-09-11T18:55:37.280Z,6.43
2022-09-11T18:58:41.804Z,7.47
2022-09-11T19:01:44.721Z,7.28
2022-09-11T19:04:47.333Z,6.90
2022-09-11T19:07:50.380Z,6.90
2022-09-11T19:10:53.173Z,5.80
2022-09-11T19:14:03.284Z,4.97
2022-09-11T19:17:05.866Z,3.83
2022-09-11T19:20:11.178Z,3.70
2022-09-11T19:23:13.767Z,3.35
2022-09-11T19:26:18.188Z,3.20
2022-09-11T19:29:22.605Z,3.43
2022-09-11T19:32:25.520Z,3.17
2022-09-11T19:35:28.073Z,2.85
2022-09-11T19:38:32.398Z,3.10
2022-09-11T19:41:37.673Z,3.20
2022-09-11T19:44:42.279Z,3.03
2022-09-11T19:47:47.999Z,2.97
2022-09-11T19:50:50.779Z,3.15
2022-09-11T19:53:55.965Z,2.95
2022-09-11T19:57:00.279Z,3.00
2022-09-11T20:00:05.723Z,3.33
2022-09-11T20:03:10.470Z,2.70
2022-09-11T20:06:16.949Z,3.28
2022-09-11T20:09:31.001Z,3.00
2022-09-11T20:12:37.060Z,3.30
2022-09-11T20:15:42.867Z,2.83
2022-09-11T20:18:45.663Z,2.50
2022-09-11T20:21:48.397Z,2.95
2022-09-11T20:24:51.125Z,2.78
2022-09-11T20:27:53.850Z,3.00
2022-09-11T20:30:57.870Z,2.90
2022-09-11T20:34:01.051Z,2.72
2022-09-11T20:37:08.148Z,2.70
2022-09-11T20:40:13.206Z,2.95
2022-09-11T20:43:15.938Z,2.93
2022-09-11T20:46:20.110Z,2.80
2022-09-11T20:49:22.680Z,3.00
2022-09-11T20:52:25.272Z,2.75
2022-09-11T20:55:28.016Z,2.95
2022-09-11T20:58:30.764Z,3.07
2022-09-11T21:01:35.900Z,2.87
2022-09-11T21:04:39.174Z,2.70
2022-09-11T21:07:42.033Z,3.22
2022-09-11T21:10:44.671Z,3.00
2022-09-11T21:13:47.594Z,2.60
2022-09-11T21:16:53.056Z,3.40
2022-09-11T21:19:57.499Z,3.13
2022-09-11T21:23:00.297Z,3.13
2022-09-11T21:26:03.435Z,3.08
2022-09-11T21:29:08.222Z,3.07
2022-09-11T21:32:12.406Z,2.93
2022-09-11T21:35:15.087Z,3.35
2022-09-11T21:38:17.760Z,2.97
2022-09-11T21:41:20.456Z,3.53
2022-09-11T21:44:23.151Z,3.00
2022-09-11T21:47:27.067Z,3.00
2022-09-11T21:50:29.972Z,3.10
2022-09-11T21:53:32.606Z,2.90
2022-09-11T21:56:35.648Z,2.83
2022-09-11T21:59:38.314Z,3.17
2022-09-11T22:02:42.395Z,3.13
2022-09-11T22:05:47.637Z,2.70
2022-09-11T22:08:50.793Z,3.20
2022-09-11T22:11:55.732Z,2.88
2022-09-11T22:15:02.182Z,3.03
2022-09-11T22:18:06.289Z,2.70
2022-09-11T22:21:10.197Z,2.80
2022-09-11T22:24:12.751Z,2.60
2022-09-11T22:27:15.515Z,2.47
2022-09-11T22:30:18.298Z,2.72
2022-09-11T22:33:22.842Z,2.30
2022-09-11T22:36:28.322Z,2.27
2022-09-11T22:39:31.847Z,2.25
2022-09-11T22:42:34.527Z,2.30
2022-09-11T22:45:37.467Z,1.90
2022-09-11T22:48:44.401Z,2.28
2022-09-11T22:51:47.112Z,2.20
2022-09-11T22:54:49.715Z,2.10
2022-09-11T22:57:52.863Z,2.22
2022-09-11T23:00:56.502Z,1.90
2022-09-11T23:04:00.615Z,2.10
2022-09-11T23:07:17.256Z,1.57
2022-09-11T23:10:24.254Z,1.70
2022-09-11T23:13:27.259Z,2.00
2022-09-11T23:16:30.897Z,1.73
2022-09-11T23:19:35.940Z,2.00
2022-09-11T23:22:38.796Z,1.50
2022-09-11T23:25:43.090Z,1.85
2022-09-11T23:28:46.540Z,1.88
2022-09-11T23:31:49.251Z,2.00
2022-09-11T23:34:54.353Z,2.00
2022-09-11T23:37:56.911Z,1.97
2022-09-11T23:40:59.743Z,1.55
2022-09-11T23:44:03.514Z,1.80
2022-09-11T23:47:06.358Z,1.63
2022-09-11T23:50:10.810Z,1.90
2022-09-11T23:53:13.476Z,1.30
2022-09-11T23:56:16.589Z,1.70
2022-09-11T23:59:19.433Z,1.80
